Main page
METAR-TAF:

METAR-TAF

Airports :

Jönköping Airport

Jönköping, Sweden

latitude: 57-46N, longitude: 014-05E, elevation: 226 m

Current weather observation

The report was made 33 minutes ago, at 03:50 UTC
Wind 5 kt from the East, varying between Northeast and Southeast
Temperature 0°C
Humidity 93%
Pressure 992 hPa
Visibility 10 km or more

METAR: ESGJ 250350Z AUTO 09005KT 050V140 9999 FEW013/// SCT045/// M00/M01 Q0992

Time: 05:23 (04:23 UTC)

Forecast

The report was made 4 hours and 17 minutes ago, at 00:06 UTC
Forecast valid from 25 at 00 UTC to 25 at 02 UTC
Wind 5 kt from the East
Visibility 10 km or more
Broken clouds at a height of 400 ft
Becoming
from 25 at 00 UTC to 25 at 01 UTC
Broken clouds at a height of 1500 ft
Probability 40%
from 25 at 01 UTC to 25 at 02 UTC
Overcast at a height of 800 ft
light snow

TAF: ESGJ 250006Z 2500/2502 10005KT 9999 BKN004 BECMG 2500/2501 BKN015 PROB40 2501/2502 -SN OVC008

Weather observations and forecasts of more than 4000 airports (METAR and TAF reports).

The available stations are represented by yellow and red dots on the map.

Hover mouse over dot to see the name of the station.

Then click to see weather observations and forecasts.

To change the map : click on the green buttons with a black cross to zoom in, on the green button with a dash to zoom out, or on the green arrows for adjacent maps.


METAR-TAF: